sensor_id;sensor_type;location;lat;lon;timestamp;P1;durP1;ratioP1;P2;durP2;ratioP2
51738;SDS011;37815;52.692;6.226;2023-05-20T00:01:09;2.38;;;1.65;;
51738;SDS011;37815;52.692;6.226;2023-05-20T00:06:10;3.22;;;1.60;;
51738;SDS011;37815;52.692;6.226;2023-05-20T00:11:10;4.38;;;1.80;;
51738;SDS011;37815;52.692;6.226;2023-05-20T00:16:11;1.83;;;1.60;;
51738;SDS011;37815;52.692;6.226;2023-05-20T00:21:11;3.78;;;1.77;;
51738;SDS011;37815;52.692;6.226;2023-05-20T00:26:12;5.75;;;1.80;;
51738;SDS011;37815;52.692;6.226;2023-05-20T00:31:12;3.72;;;1.77;;
51738;SDS011;37815;52.692;6.226;2023-05-20T00:36:13;2.40;;;1.85;;
51738;SDS011;37815;52.692;6.226;2023-05-20T00:41:14;4.68;;;1.70;;
51738;SDS011;37815;52.692;6.226;2023-05-20T00:46:14;3.20;;;1.67;;
51738;SDS011;37815;52.692;6.226;2023-05-20T00:51:15;4.28;;;1.77;;
51738;SDS011;37815;52.692;6.226;2023-05-20T00:56:16;3.08;;;1.65;;
51738;SDS011;37815;52.692;6.226;2023-05-20T01:01:17;2.85;;;1.83;;
51738;SDS011;37815;52.692;6.226;2023-05-20T01:06:18;3.13;;;1.80;;
51738;SDS011;37815;52.692;6.226;2023-05-20T01:11:28;3.30;;;1.67;;
51738;SDS011;37815;52.692;6.226;2023-05-20T01:16:38;4.68;;;1.73;;
51738;SDS011;37815;52.692;6.226;2023-05-20T01:21:39;3.28;;;1.80;;
51738;SDS011;37815;52.692;6.226;2023-05-20T01:26:41;3.55;;;1.80;;
51738;SDS011;37815;52.692;6.226;2023-05-20T01:31:42;2.72;;;1.95;;
51738;SDS011;37815;52.692;6.226;2023-05-20T01:36:44;2.38;;;1.83;;
51738;SDS011;37815;52.692;6.226;2023-05-20T01:41:45;6.82;;;1.90;;
51738;SDS011;37815;52.692;6.226;2023-05-20T01:46:48;4.03;;;1.90;;
51738;SDS011;37815;52.692;6.226;2023-05-20T01:51:49;3.90;;;1.90;;
51738;SDS011;37815;52.692;6.226;2023-05-20T01:56:50;3.17;;;1.85;;
51738;SDS011;37815;52.692;6.226;2023-05-20T02:01:50;3.15;;;1.77;;
51738;SDS011;37815;52.692;6.226;2023-05-20T02:06:51;4.50;;;1.73;;
51738;SDS011;37815;52.692;6.226;2023-05-20T02:11:52;3.20;;;1.80;;
51738;SDS011;37815;52.692;6.226;2023-05-20T02:16:52;2.97;;;1.75;;
51738;SDS011;37815;52.692;6.226;2023-05-20T02:21:53;2.10;;;1.50;;
51738;SDS011;37815;52.692;6.226;2023-05-20T02:26:54;4.93;;;1.92;;
51738;SDS011;37815;52.692;6.226;2023-05-20T02:31:56;4.60;;;1.90;;
51738;SDS011;37815;52.692;6.226;2023-05-20T02:36:57;2.85;;;1.70;;
51738;SDS011;37815;52.692;6.226;2023-05-20T02:41:58;3.90;;;1.98;;
51738;SDS011;37815;52.692;6.226;2023-05-20T02:46:58;4.28;;;1.90;;
51738;SDS011;37815;52.692;6.226;2023-05-20T02:51:59;1.90;;;1.65;;
51738;SDS011;37815;52.692;6.226;2023-05-20T02:56:59;2.63;;;1.77;;
51738;SDS011;37815;52.692;6.226;2023-05-20T03:02:01;2.67;;;1.55;;
51738;SDS011;37815;52.692;6.226;2023-05-20T03:07:02;2.70;;;1.80;;
51738;SDS011;37815;52.692;6.226;2023-05-20T03:12:03;3.22;;;1.85;;
51738;SDS011;37815;52.692;6.226;2023-05-20T03:17:04;2.78;;;1.60;;
51738;SDS011;37815;52.692;6.226;2023-05-20T03:22:04;3.55;;;1.70;;
51738;SDS011;37815;52.692;6.226;2023-05-20T03:27:05;3.85;;;1.80;;
51738;SDS011;37815;52.692;6.226;2023-05-20T03:32:06;3.88;;;1.83;;
51738;SDS011;37815;52.692;6.226;2023-05-20T03:37:06;2.05;;;1.55;;
51738;SDS011;37815;52.692;6.226;2023-05-20T03:42:07;2.45;;;1.55;;
51738;SDS011;37815;52.692;6.226;2023-05-20T03:47:08;2.67;;;1.48;;
51738;SDS011;37815;52.692;6.226;2023-05-20T03:52:09;2.95;;;1.70;;
51738;SDS011;37815;52.692;6.226;2023-05-20T03:57:10;3.80;;;1.60;;
51738;SDS011;37815;52.692;6.226;2023-05-20T04:02:10;3.00;;;1.70;;
51738;SDS011;37815;52.692;6.226;2023-05-20T04:07:11;3.30;;;1.67;;
51738;SDS011;37815;52.692;6.226;2023-05-20T04:12:12;2.55;;;1.35;;
51738;SDS011;37815;52.692;6.226;2023-05-20T04:17:12;2.63;;;1.65;;
51738;SDS011;37815;52.692;6.226;2023-05-20T04:22:13;1.95;;;1.55;;
51738;SDS011;37815;52.692;6.226;2023-05-20T04:27:14;2.20;;;1.45;;
51738;SDS011;37815;52.692;6.226;2023-05-20T04:32:16;1.65;;;1.33;;
51738;SDS011;37815;52.692;6.226;2023-05-20T04:37:18;2.72;;;1.50;;
51738;SDS011;37815;52.692;6.226;2023-05-20T04:42:19;3.08;;;1.60;;
51738;SDS011;37815;52.692;6.226;2023-05-20T04:47:21;2.58;;;1.95;;
51738;SDS011;37815;52.692;6.226;2023-05-20T04:52:25;3.20;;;1.65;;
51738;SDS011;37815;52.692;6.226;2023-05-20T04:57:26;3.90;;;1.60;;
51738;SDS011;37815;52.692;6.226;2023-05-20T05:02:27;2.15;;;1.20;;
51738;SDS011;37815;52.692;6.226;2023-05-20T05:07:27;2.47;;;1.88;;
51738;SDS011;37815;52.692;6.226;2023-05-20T05:12:28;3.33;;;1.40;;
51738;SDS011;37815;52.692;6.226;2023-05-20T05:17:28;2.53;;;1.25;;
51738;SDS011;37815;52.692;6.226;2023-05-20T05:22:29;1.58;;;1.30;;
51738;SDS011;37815;52.692;6.226;2023-05-20T05:27:30;1.80;;;1.08;;
51738;SDS011;37815;52.692;6.226;2023-05-20T05:32:30;3.33;;;1.35;;
51738;SDS011;37815;52.692;6.226;2023-05-20T05:37:31;1.58;;;1.20;;
51738;SDS011;37815;52.692;6.226;2023-05-20T05:42:33;2.15;;;1.23;;
51738;SDS011;37815;52.692;6.226;2023-05-20T05:47:34;1.50;;;1.40;;
51738;SDS011;37815;52.692;6.226;2023-05-20T05:52:35;1.52;;;1.27;;
51738;SDS011;37815;52.692;6.226;2023-05-20T05:57:35;2.08;;;1.40;;
51738;SDS011;37815;52.692;6.226;2023-05-20T06:02:36;2.13;;;1.13;;
51738;SDS011;37815;52.692;6.226;2023-05-20T06:07:37;1.85;;;1.10;;
51738;SDS011;37815;52.692;6.226;2023-05-20T06:12:37;3.22;;;2.05;;
51738;SDS011;37815;52.692;6.226;2023-05-20T06:17:38;3.15;;;1.30;;
51738;SDS011;37815;52.692;6.226;2023-05-20T06:22:38;1.58;;;1.17;;
51738;SDS011;37815;52.692;6.226;2023-05-20T06:27:39;1.10;;;1.00;;
51738;SDS011;37815;52.692;6.226;2023-05-20T06:32:40;1.60;;;1.10;;
51738;SDS011;37815;52.692;6.226;2023-05-20T06:37:40;1.65;;;1.02;;
51738;SDS011;37815;52.692;6.226;2023-05-20T06:42:41;3.75;;;1.50;;
51738;SDS011;37815;52.692;6.226;2023-05-20T06:47:41;1.45;;;1.10;;
51738;SDS011;37815;52.692;6.226;2023-05-20T06:52:42;2.17;;;1.33;;
51738;SDS011;37815;52.692;6.226;2023-05-20T06:57:43;3.85;;;1.10;;
51738;SDS011;37815;52.692;6.226;2023-05-20T07:02:43;1.88;;;1.25;;
51738;SDS011;37815;52.692;6.226;2023-05-20T07:07:45;2.38;;;1.70;;
51738;SDS011;37815;52.692;6.226;2023-05-20T07:12:45;1.40;;;0.95;;
51738;SDS011;37815;52.692;6.226;2023-05-20T07:17:46;1.27;;;1.17;;
51738;SDS011;37815;52.692;6.226;2023-05-20T07:22:46;2.13;;;1.40;;
51738;SDS011;37815;52.692;6.226;2023-05-20T07:27:49;1.55;;;1.10;;
51738;SDS011;37815;52.692;6.226;2023-05-20T07:32:50;1.77;;;1.17;;
51738;SDS011;37815;52.692;6.226;2023-05-20T07:37:51;1.80;;;1.20;;
51738;SDS011;37815;52.692;6.226;2023-05-20T07:42:52;1.70;;;1.13;;
51738;SDS011;37815;52.692;6.226;2023-05-20T07:47:52;1.73;;;1.25;;
51738;SDS011;37815;52.692;6.226;2023-05-20T07:52:53;1.58;;;1.00;;
51738;SDS011;37815;52.692;6.226;2023-05-20T07:57:53;2.10;;;0.95;;
51738;SDS011;37815;52.692;6.226;2023-05-20T08:02:54;3.97;;;1.50;;
51738;SDS011;37815;52.692;6.226;2023-05-20T08:07:55;1.20;;;1.10;;
51738;SDS011;37815;52.692;6.226;2023-05-20T08:12:55;2.00;;;1.35;;
51738;SDS011;37815;52.692;6.226;2023-05-20T08:17:56;4.13;;;1.70;;
51738;SDS011;37815;52.692;6.226;2023-05-20T08:22:56;3.97;;;1.88;;
51738;SDS011;37815;52.692;6.226;2023-05-20T08:27:57;2.78;;;2.08;;
51738;SDS011;37815;52.692;6.226;2023-05-20T08:33:02;3.10;;;1.90;;
51738;SDS011;37815;52.692;6.226;2023-05-20T08:38:03;3.97;;;2.08;;
51738;SDS011;37815;52.692;6.226;2023-05-20T08:43:05;3.58;;;2.03;;
51738;SDS011;37815;52.692;6.226;2023-05-20T08:48:06;4.97;;;2.88;;
51738;SDS011;37815;52.692;6.226;2023-05-20T08:53:07;4.50;;;2.28;;
51738;SDS011;37815;52.692;6.226;2023-05-20T08:58:08;3.28;;;1.42;;
51738;SDS011;37815;52.692;6.226;2023-05-20T09:03:09;4.30;;;1.90;;
51738;SDS011;37815;52.692;6.226;2023-05-20T09:08:10;4.47;;;1.90;;
51738;SDS011;37815;52.692;6.226;2023-05-20T09:13:11;5.45;;;1.95;;
51738;SDS011;37815;52.692;6.226;2023-05-20T09:18:12;4.18;;;1.70;;
51738;SDS011;37815;52.692;6.226;2023-05-20T09:23:12;3.53;;;1.30;;
51738;SDS011;37815;52.692;6.226;2023-05-20T09:28:13;3.72;;;2.20;;
51738;SDS011;37815;52.692;6.226;2023-05-20T09:33:14;3.13;;;1.67;;
51738;SDS011;37815;52.692;6.226;2023-05-20T09:38:14;3.25;;;2.10;;
51738;SDS011;37815;52.692;6.226;2023-05-20T09:43:16;5.10;;;2.28;;
51738;SDS011;37815;52.692;6.226;2023-05-20T09:48:17;3.78;;;1.88;;
51738;SDS011;37815;52.692;6.226;2023-05-20T09:53:18;4.88;;;2.00;;
51738;SDS011;37815;52.692;6.226;2023-05-20T09:58:19;3.65;;;2.13;;
51738;SDS011;37815;52.692;6.226;2023-05-20T10:03:20;3.58;;;1.73;;
51738;SDS011;37815;52.692;6.226;2023-05-20T10:08:42;4.22;;;1.73;;
51738;SDS011;37815;52.692;6.226;2023-05-20T10:24:27;3.13;;;1.58;;
51738;SDS011;37815;52.692;6.226;2023-05-20T10:29:40;5.07;;;2.00;;
51738;SDS011;37815;52.692;6.226;2023-05-20T10:34:50;3.35;;;1.60;;
51738;SDS011;37815;52.692;6.226;2023-05-20T10:39:51;5.15;;;1.70;;
51738;SDS011;37815;52.692;6.226;2023-05-20T10:45:23;2.53;;;1.63;;
51738;SDS011;37815;52.692;6.226;2023-05-20T10:50:33;3.08;;;1.98;;
51738;SDS011;37815;52.692;6.226;2023-05-20T10:55:35;4.17;;;1.77;;
51738;SDS011;37815;52.692;6.226;2023-05-20T11:00:37;3.85;;;2.13;;
51738;SDS011;37815;52.692;6.226;2023-05-20T11:05:38;3.85;;;1.83;;
51738;SDS011;37815;52.692;6.226;2023-05-20T11:10:40;3.80;;;2.05;;
51738;SDS011;37815;52.692;6.226;2023-05-20T11:15:41;2.53;;;2.00;;
51738;SDS011;37815;52.692;6.226;2023-05-20T11:20:42;3.17;;;1.88;;
51738;SDS011;37815;52.692;6.226;2023-05-20T11:25:45;2.40;;;1.77;;
51738;SDS011;37815;52.692;6.226;2023-05-20T11:30:45;3.60;;;1.95;;
51738;SDS011;37815;52.692;6.226;2023-05-20T11:35:47;3.92;;;1.80;;
51738;SDS011;37815;52.692;6.226;2023-05-20T11:40:52;3.45;;;1.90;;
51738;SDS011;37815;52.692;6.226;2023-05-20T11:45:55;3.35;;;2.10;;
51738;SDS011;37815;52.692;6.226;2023-05-20T11:51:01;2.33;;;1.50;;
51738;SDS011;37815;52.692;6.226;2023-05-20T11:56:02;3.15;;;1.92;;
51738;SDS011;37815;52.692;6.226;2023-05-20T12:01:02;2.90;;;1.60;;
51738;SDS011;37815;52.692;6.226;2023-05-20T12:06:03;2.90;;;1.70;;
51738;SDS011;37815;52.692;6.226;2023-05-20T12:11:03;2.92;;;1.70;;
51738;SDS011;37815;52.692;6.226;2023-05-20T12:16:04;3.30;;;1.90;;
51738;SDS011;37815;52.692;6.226;2023-05-20T12:21:05;2.60;;;1.67;;
51738;SDS011;37815;52.692;6.226;2023-05-20T12:26:05;3.55;;;2.15;;
51738;SDS011;37815;52.692;6.226;2023-05-20T12:31:06;6.55;;;1.95;;
51738;SDS011;37815;52.692;6.226;2023-05-20T12:36:07;2.38;;;1.60;;
51738;SDS011;37815;52.692;6.226;2023-05-20T12:41:07;9.35;;;2.28;;
51738;SDS011;37815;52.692;6.226;2023-05-20T12:46:08;3.00;;;1.88;;
51738;SDS011;37815;52.692;6.226;2023-05-20T12:51:08;3.33;;;1.88;;
51738;SDS011;37815;52.692;6.226;2023-05-20T12:56:09;3.58;;;2.40;;
51738;SDS011;37815;52.692;6.226;2023-05-20T13:01:10;2.85;;;1.70;;
51738;SDS011;37815;52.692;6.226;2023-05-20T13:06:10;3.13;;;1.83;;
51738;SDS011;37815;52.692;6.226;2023-05-20T13:11:11;3.88;;;2.03;;
51738;SDS011;37815;52.692;6.226;2023-05-20T13:16:12;5.40;;;1.90;;
51738;SDS011;37815;52.692;6.226;2023-05-20T13:21:12;2.67;;;2.00;;
51738;SDS011;37815;52.692;6.226;2023-05-20T13:26:13;5.80;;;2.25;;
51738;SDS011;37815;52.692;6.226;2023-05-20T13:31:14;5.57;;;2.38;;
51738;SDS011;37815;52.692;6.226;2023-05-20T13:36:15;2.63;;;2.00;;
51738;SDS011;37815;52.692;6.226;2023-05-20T13:41:15;4.00;;;1.73;;
51738;SDS011;37815;52.692;6.226;2023-05-20T13:46:16;7.32;;;2.10;;
51738;SDS011;37815;52.692;6.226;2023-05-20T13:51:17;2.40;;;1.80;;
51738;SDS011;37815;52.692;6.226;2023-05-20T13:56:17;2.88;;;1.70;;
51738;SDS011;37815;52.692;6.226;2023-05-20T14:01:18;2.67;;;1.70;;
51738;SDS011;37815;52.692;6.226;2023-05-20T14:06:19;6.22;;;1.80;;
51738;SDS011;37815;52.692;6.226;2023-05-20T14:11:19;2.50;;;1.70;;
51738;SDS011;37815;52.692;6.226;2023-05-20T14:16:20;2.50;;;1.80;;
51738;SDS011;37815;52.692;6.226;2023-05-20T14:21:21;2.28;;;1.60;;
51738;SDS011;37815;52.692;6.226;2023-05-20T14:26:21;2.22;;;2.00;;
51738;SDS011;37815;52.692;6.226;2023-05-20T14:31:22;2.65;;;1.83;;
51738;SDS011;37815;52.692;6.226;2023-05-20T14:36:23;2.85;;;1.58;;
51738;SDS011;37815;52.692;6.226;2023-05-20T14:41:23;3.45;;;1.90;;
51738;SDS011;37815;52.692;6.226;2023-05-20T14:46:25;2.10;;;1.50;;
51738;SDS011;37815;52.692;6.226;2023-05-20T14:51:27;5.43;;;2.03;;
51738;SDS011;37815;52.692;6.226;2023-05-20T14:56:27;4.32;;;1.70;;
51738;SDS011;37815;52.692;6.226;2023-05-20T15:01:28;6.05;;;1.60;;
51738;SDS011;37815;52.692;6.226;2023-05-20T15:06:28;1.65;;;1.25;;
51738;SDS011;37815;52.692;6.226;2023-05-20T15:11:30;4.50;;;1.70;;
51738;SDS011;37815;52.692;6.226;2023-05-20T15:16:31;2.58;;;1.40;;
51738;SDS011;37815;52.692;6.226;2023-05-20T15:21:31;2.88;;;1.67;;
51738;SDS011;37815;52.692;6.226;2023-05-20T15:26:32;4.70;;;1.73;;
51738;SDS011;37815;52.692;6.226;2023-05-20T15:31:33;3.40;;;2.10;;
51738;SDS011;37815;52.692;6.226;2023-05-20T15:36:33;3.75;;;1.45;;
51738;SDS011;37815;52.692;6.226;2023-05-20T15:41:34;5.25;;;1.52;;
51738;SDS011;37815;52.692;6.226;2023-05-20T15:46:36;4.28;;;1.67;;
51738;SDS011;37815;52.692;6.226;2023-05-20T15:51:37;5.75;;;2.72;;
51738;SDS011;37815;52.692;6.226;2023-05-20T15:56:38;4.55;;;1.60;;
51738;SDS011;37815;52.692;6.226;2023-05-20T16:01:38;3.53;;;1.80;;
51738;SDS011;37815;52.692;6.226;2023-05-20T16:06:39;5.10;;;2.10;;
51738;SDS011;37815;52.692;6.226;2023-05-20T16:11:40;3.17;;;1.67;;
51738;SDS011;37815;52.692;6.226;2023-05-20T16:16:40;4.90;;;2.17;;
51738;SDS011;37815;52.692;6.226;2023-05-20T16:21:41;4.10;;;1.88;;
51738;SDS011;37815;52.692;6.226;2023-05-20T16:26:41;3.15;;;2.08;;
51738;SDS011;37815;52.692;6.226;2023-05-20T16:31:42;3.22;;;1.60;;
51738;SDS011;37815;52.692;6.226;2023-05-20T16:36:45;4.18;;;2.00;;
51738;SDS011;37815;52.692;6.226;2023-05-20T16:41:46;2.35;;;1.23;;
51738;SDS011;37815;52.692;6.226;2023-05-20T16:46:46;2.95;;;1.45;;
51738;SDS011;37815;52.692;6.226;2023-05-20T16:51:47;1.80;;;1.27;;
51738;SDS011;37815;52.692;6.226;2023-05-20T16:56:48;2.20;;;1.42;;
51738;SDS011;37815;52.692;6.226;2023-05-20T17:01:49;4.32;;;1.40;;
51738;SDS011;37815;52.692;6.226;2023-05-20T17:06:50;2.75;;;1.20;;
51738;SDS011;37815;52.692;6.226;2023-05-20T17:11:50;4.35;;;1.33;;
51738;SDS011;37815;52.692;6.226;2023-05-20T17:16:53;3.70;;;1.38;;
51738;SDS011;37815;52.692;6.226;2023-05-20T17:21:53;1.80;;;1.15;;
51738;SDS011;37815;52.692;6.226;2023-05-20T17:26:54;3.20;;;1.55;;
51738;SDS011;37815;52.692;6.226;2023-05-20T17:31:55;2.85;;;1.38;;
51738;SDS011;37815;52.692;6.226;2023-05-20T17:36:56;1.60;;;1.40;;
51738;SDS011;37815;52.692;6.226;2023-05-20T17:41:56;2.45;;;1.20;;
51738;SDS011;37815;52.692;6.226;2023-05-20T17:46:57;2.00;;;1.13;;
51738;SDS011;37815;52.692;6.226;2023-05-20T17:51:57;1.20;;;1.10;;
51738;SDS011;37815;52.692;6.226;2023-05-20T17:56:58;2.28;;;1.20;;
51738;SDS011;37815;52.692;6.226;2023-05-20T18:01:59;4.38;;;1.30;;
51738;SDS011;37815;52.692;6.226;2023-05-20T18:07:00;2.17;;;1.05;;
51738;SDS011;37815;52.692;6.226;2023-05-20T18:12:02;3.20;;;1.30;;
51738;SDS011;37815;52.692;6.226;2023-05-20T18:17:03;2.03;;;1.40;;
51738;SDS011;37815;52.692;6.226;2023-05-20T18:22:04;1.13;;;1.00;;
51738;SDS011;37815;52.692;6.226;2023-05-20T18:27:06;1.45;;;1.05;;
51738;SDS011;37815;52.692;6.226;2023-05-20T18:32:06;3.30;;;1.17;;
51738;SDS011;37815;52.692;6.226;2023-05-20T18:37:07;2.20;;;1.13;;
51738;SDS011;37815;52.692;6.226;2023-05-20T18:42:08;2.00;;;1.00;;
51738;SDS011;37815;52.692;6.226;2023-05-20T18:47:09;1.63;;;1.15;;
51738;SDS011;37815;52.692;6.226;2023-05-20T18:52:09;1.30;;;1.20;;
51738;SDS011;37815;52.692;6.226;2023-05-20T18:57:10;1.67;;;1.10;;
51738;SDS011;37815;52.692;6.226;2023-05-20T19:02:11;1.60;;;1.10;;
51738;SDS011;37815;52.692;6.226;2023-05-20T19:07:11;2.10;;;1.10;;
51738;SDS011;37815;52.692;6.226;2023-05-20T19:12:12;1.45;;;1.02;;
51738;SDS011;37815;52.692;6.226;2023-05-20T19:17:12;2.88;;;1.05;;
51738;SDS011;37815;52.692;6.226;2023-05-20T19:22:13;2.00;;;1.02;;
51738;SDS011;37815;52.692;6.226;2023-05-20T19:27:14;2.25;;;1.00;;
51738;SDS011;37815;52.692;6.226;2023-05-20T19:32:14;1.58;;;1.08;;
51738;SDS011;37815;52.692;6.226;2023-05-20T19:37:15;1.60;;;1.20;;
51738;SDS011;37815;52.692;6.226;2023-05-20T19:42:16;1.10;;;0.88;;
51738;SDS011;37815;52.692;6.226;2023-05-20T19:47:16;2.15;;;1.13;;
51738;SDS011;37815;52.692;6.226;2023-05-20T19:52:17;2.60;;;1.15;;
51738;SDS011;37815;52.692;6.226;2023-05-20T19:57:18;3.53;;;1.10;;
51738;SDS011;37815;52.692;6.226;2023-05-20T20:02:19;1.48;;;1.30;;
51738;SDS011;37815;52.692;6.226;2023-05-20T20:07:20;2.78;;;1.25;;
51738;SDS011;37815;52.692;6.226;2023-05-20T20:12:20;1.55;;;1.05;;
51738;SDS011;37815;52.692;6.226;2023-05-20T20:17:21;1.40;;;1.25;;
51738;SDS011;37815;52.692;6.226;2023-05-20T20:22:22;1.63;;;1.30;;
51738;SDS011;37815;52.692;6.226;2023-05-20T20:27:23;1.48;;;1.17;;
51738;SDS011;37815;52.692;6.226;2023-05-20T20:32:23;1.35;;;1.10;;
51738;SDS011;37815;52.692;6.226;2023-05-20T20:37:25;1.35;;;1.08;;
51738;SDS011;37815;52.692;6.226;2023-05-20T20:42:26;1.42;;;1.13;;
51738;SDS011;37815;52.692;6.226;2023-05-20T20:47:26;1.83;;;1.25;;
51738;SDS011;37815;52.692;6.226;2023-05-20T20:52:28;2.33;;;1.30;;
51738;SDS011;37815;52.692;6.226;2023-05-20T20:57:28;2.30;;;1.10;;
51738;SDS011;37815;52.692;6.226;2023-05-20T21:02:30;1.13;;;1.02;;
51738;SDS011;37815;52.692;6.226;2023-05-20T21:07:31;1.70;;;1.30;;
51738;SDS011;37815;52.692;6.226;2023-05-20T21:12:32;2.35;;;1.50;;
51738;SDS011;37815;52.692;6.226;2023-05-20T21:17:33;1.38;;;1.20;;
51738;SDS011;37815;52.692;6.226;2023-05-20T21:22:33;1.67;;;1.48;;
51738;SDS011;37815;52.692;6.226;2023-05-20T21:27:34;2.15;;;1.33;;
51738;SDS011;37815;52.692;6.226;2023-05-20T21:32:35;1.60;;;1.23;;
51738;SDS011;37815;52.692;6.226;2023-05-20T21:37:36;1.88;;;1.45;;
51738;SDS011;37815;52.692;6.226;2023-05-20T21:42:37;2.00;;;1.25;;
51738;SDS011;37815;52.692;6.226;2023-05-20T21:47:37;2.35;;;1.40;;
51738;SDS011;37815;52.692;6.226;2023-05-20T21:52:38;1.20;;;1.00;;
51738;SDS011;37815;52.692;6.226;2023-05-20T21:57:39;2.10;;;1.10;;
51738;SDS011;37815;52.692;6.226;2023-05-20T22:02:39;1.45;;;1.35;;
51738;SDS011;37815;52.692;6.226;2023-05-20T22:07:40;1.77;;;1.35;;
51738;SDS011;37815;52.692;6.226;2023-05-20T22:12:42;1.90;;;1.50;;
51738;SDS011;37815;52.692;6.226;2023-05-20T22:17:43;1.30;;;1.08;;
51738;SDS011;37815;52.692;6.226;2023-05-20T22:22:46;1.30;;;1.20;;
51738;SDS011;37815;52.692;6.226;2023-05-20T22:27:46;1.50;;;1.25;;
51738;SDS011;37815;52.692;6.226;2023-05-20T22:32:47;1.58;;;1.30;;
51738;SDS011;37815;52.692;6.226;2023-05-20T22:37:48;1.40;;;1.30;;
51738;SDS011;37815;52.692;6.226;2023-05-20T22:42:49;1.63;;;1.40;;
51738;SDS011;37815;52.692;6.226;2023-05-20T22:47:49;1.45;;;1.10;;
51738;SDS011;37815;52.692;6.226;2023-05-20T22:52:50;1.83;;;1.42;;
51738;SDS011;37815;52.692;6.226;2023-05-20T22:57:51;2.80;;;1.50;;
51738;SDS011;37815;52.692;6.226;2023-05-20T23:02:51;1.90;;;1.40;;
51738;SDS011;37815;52.692;6.226;2023-05-20T23:07:52;1.88;;;1.67;;
51738;SDS011;37815;52.692;6.226;2023-05-20T23:12:53;2.20;;;1.27;;
51738;SDS011;37815;52.692;6.226;2023-05-20T23:17:54;2.13;;;1.52;;
51738;SDS011;37815;52.692;6.226;2023-05-20T23:22:54;1.60;;;1.35;;
51738;SDS011;37815;52.692;6.226;2023-05-20T23:27:55;2.95;;;1.38;;
51738;SDS011;37815;52.692;6.226;2023-05-20T23:32:56;2.08;;;1.50;;
51738;SDS011;37815;52.692;6.226;2023-05-20T23:37:56;1.95;;;1.30;;
51738;SDS011;37815;52.692;6.226;2023-05-20T23:42:57;2.70;;;1.50;;
51738;SDS011;37815;52.692;6.226;2023-05-20T23:47:57;3.88;;;1.80;;
51738;SDS011;37815;52.692;6.226;2023-05-20T23:53:00;1.85;;;1.50;;
51738;SDS011;37815;52.692;6.226;2023-05-20T23:58:00;1.67;;;1.42;;
